Green Bay, WI (54311)

9:01 PM CST on November 23, 2014 (GMT -0600)
Nicolet Drive | Change Station
CLOSE
Current Station
Personal Weather Station
Location: Green Bay, WI
Elevation: 574 ft
Nearby Weather Stations
Active Advisory: Special Statement

Elev 574 ft 44.54 °N, 87.92 °W | Updated 8 seconds ago

Rain
Rain
45.4 °F
Feels Like 45 °F
N
1.0
Wind Variable Wind from East
Gusts 6.0 mph

Today
High -- | Low -- °F
--% Chance of Precip.
Yesterday
High -- | Low -- °F
Precip. -- in
6:58 AM 4:17 PM
Waxing Crescent, 3% visible
Pressure 29.29 in
Visibility 4.0 miles
Clouds Overcast 600 ft
Windchill 45 °F
Dew Point 44 °F
Humidity 96%
Rainfall 0.27 in
Snow Depth Not available.
UV 0.0 out of 12
Pollen .10 out of 12
Air Quality Not available.
Flu Activity Not available.
METAR KGRB 240253Z 13009KT 4SM -RA BR OVC006 08/07 A2927 RMK AO2 SLP916 P0003 60009 T00780072 58043

More Conditions Fewer Conditions

Pressure 29.29 in
Visibility 4.0 miles
Clouds Overcast 600 ft
Windchill 45 °F
Dew Point 44 °F
Humidity 96%
Rainfall 0.27 in
Snow Depth Not available.
UV 0.0 out of 12
Pollen .10 out of 12
Air Quality Not available.
Flu Activity Not available.
METAR KGRB 240253Z 13009KT 4SM -RA BR OVC006 08/07 A2927 RMK AO2 SLP916 P0003 60009 T00780072 58043

More Conditions Fewer Conditions

10-Day Weather Forecast

Almanac

Astronomy

Nov. 23, 2014 Rise Set
Actual Time
Civil Twilight
Nautical Twilight
Astronomical Twilight
Moon
Length of Visible Light
Length of Day
Tomorrow will be .
, % of the Moon is Illuminated

Today's Extremes

State Highs State Lows

Community

WunderPhotos

Upload Photos

1,773,257 photos uploaded!

WunderBlogs® & News

Nearby

Air Quality

  Air Quality AQ Index Pollutant
Not available.

Snow Depth

Station Depth Elevation

Earthquake Activity

City Distance Mag. Time & Date
Minimum magnitude displayed is 2.5.

Coastal Water Temperatures

Place Temperature

Nearby Weather Stations